sensor_id;sensor_type;location;lat;lon;timestamp;P1;durP1;ratioP1;P2;durP2;ratioP2
15425;SDS011;7812;50.072;7.036;2022-09-03T00:02:08;1.80;;;1.50;;
15425;SDS011;7812;50.072;7.036;2022-09-03T00:04:55;1.40;;;1.30;;
15425;SDS011;7812;50.072;7.036;2022-09-03T00:13:05;1.57;;;1.47;;
15425;SDS011;7812;50.072;7.036;2022-09-03T00:15:33;2.27;;;1.80;;
15425;SDS011;7812;50.072;7.036;2022-09-03T00:18:14;3.00;;;1.70;;
15425;SDS011;7812;50.072;7.036;2022-09-03T00:21:00;1.70;;;1.60;;
15425;SDS011;7812;50.072;7.036;2022-09-03T00:23:41;2.30;;;1.47;;
15425;SDS011;7812;50.072;7.036;2022-09-03T00:28:46;3.27;;;1.57;;
15425;SDS011;7812;50.072;7.036;2022-09-03T00:33:50;1.80;;;1.60;;
15425;SDS011;7812;50.072;7.036;2022-09-03T00:36:42;1.50;;;1.40;;
15425;SDS011;7812;50.072;7.036;2022-09-03T00:39:14;1.77;;;1.67;;
15425;SDS011;7812;50.072;7.036;2022-09-03T00:52:53;3.20;;;2.03;;
15425;SDS011;7812;50.072;7.036;2022-09-03T01:01:27;2.77;;;1.67;;
15425;SDS011;7812;50.072;7.036;2022-09-03T01:09:27;3.23;;;1.50;;
15425;SDS011;7812;50.072;7.036;2022-09-03T01:15:21;2.17;;;1.30;;
15425;SDS011;7812;50.072;7.036;2022-09-03T01:30:42;1.70;;;1.40;;
15425;SDS011;7812;50.072;7.036;2022-09-03T01:38:59;2.00;;;1.40;;
15425;SDS011;7812;50.072;7.036;2022-09-03T01:50:39;1.53;;;1.43;;
15425;SDS011;7812;50.072;7.036;2022-09-03T01:53:06;1.60;;;1.50;;
15425;SDS011;7812;50.072;7.036;2022-09-03T02:01:54;1.80;;;1.50;;
15425;SDS011;7812;50.072;7.036;2022-09-03T02:04:25;2.30;;;1.30;;
15425;SDS011;7812;50.072;7.036;2022-09-03T02:06:53;2.37;;;1.40;;
15425;SDS011;7812;50.072;7.036;2022-09-03T02:09:21;1.97;;;1.40;;
15425;SDS011;7812;50.072;7.036;2022-09-03T02:11:52;1.30;;;1.20;;
15425;SDS011;7812;50.072;7.036;2022-09-03T02:14:30;1.40;;;1.30;;
15425;SDS011;7812;50.072;7.036;2022-09-03T02:16:57;1.63;;;1.10;;
15425;SDS011;7812;50.072;7.036;2022-09-03T02:19:25;1.40;;;1.30;;
15425;SDS011;7812;50.072;7.036;2022-09-03T02:21:53;2.50;;;1.43;;
15425;SDS011;7812;50.072;7.036;2022-09-03T02:24:20;1.67;;;1.20;;
15425;SDS011;7812;50.072;7.036;2022-09-03T02:26:47;1.70;;;1.40;;
15425;SDS011;7812;50.072;7.036;2022-09-03T02:29:14;2.17;;;1.40;;
15425;SDS011;7812;50.072;7.036;2022-09-03T02:31:41;1.30;;;1.20;;
15425;SDS011;7812;50.072;7.036;2022-09-03T02:34:07;1.87;;;1.50;;
15425;SDS011;7812;50.072;7.036;2022-09-03T02:36:34;1.60;;;1.47;;
15425;SDS011;7812;50.072;7.036;2022-09-03T02:39:02;1.23;;;1.13;;
15425;SDS011;7812;50.072;7.036;2022-09-03T02:41:29;1.40;;;1.17;;
15425;SDS011;7812;50.072;7.036;2022-09-03T02:46:58;2.00;;;1.50;;
15425;SDS011;7812;50.072;7.036;2022-09-03T02:49:26;1.73;;;1.50;;
15425;SDS011;7812;50.072;7.036;2022-09-03T02:51:56;1.40;;;1.30;;
15425;SDS011;7812;50.072;7.036;2022-09-03T02:54:31;2.63;;;1.50;;
15425;SDS011;7812;50.072;7.036;2022-09-03T02:57:00;1.77;;;1.50;;
15425;SDS011;7812;50.072;7.036;2022-09-03T02:59:26;1.47;;;1.37;;
15425;SDS011;7812;50.072;7.036;2022-09-03T03:01:52;2.77;;;1.37;;
15425;SDS011;7812;50.072;7.036;2022-09-03T03:04:19;1.60;;;1.50;;
15425;SDS011;7812;50.072;7.036;2022-09-03T03:06:45;1.70;;;1.30;;
15425;SDS011;7812;50.072;7.036;2022-09-03T03:09:11;1.70;;;1.50;;
15425;SDS011;7812;50.072;7.036;2022-09-03T03:11:37;1.57;;;1.40;;
15425;SDS011;7812;50.072;7.036;2022-09-03T03:14:04;2.03;;;1.40;;
15425;SDS011;7812;50.072;7.036;2022-09-03T03:16:29;1.60;;;1.20;;
15425;SDS011;7812;50.072;7.036;2022-09-03T03:18:55;1.40;;;1.20;;
15425;SDS011;7812;50.072;7.036;2022-09-03T03:21:21;1.97;;;1.33;;
15425;SDS011;7812;50.072;7.036;2022-09-03T03:23:47;1.60;;;1.50;;
15425;SDS011;7812;50.072;7.036;2022-09-03T03:26:15;2.07;;;1.40;;
15425;SDS011;7812;50.072;7.036;2022-09-03T03:28:43;2.03;;;1.40;;
15425;SDS011;7812;50.072;7.036;2022-09-03T03:31:17;1.43;;;1.33;;
15425;SDS011;7812;50.072;7.036;2022-09-03T03:33:49;1.37;;;1.13;;
15425;SDS011;7812;50.072;7.036;2022-09-03T03:36:20;1.40;;;1.30;;
15425;SDS011;7812;50.072;7.036;2022-09-03T03:38:46;1.70;;;1.20;;
15425;SDS011;7812;50.072;7.036;2022-09-03T03:41:14;1.57;;;1.40;;
15425;SDS011;7812;50.072;7.036;2022-09-03T03:43:46;1.60;;;1.50;;
15425;SDS011;7812;50.072;7.036;2022-09-03T03:46:12;1.63;;;1.47;;
15425;SDS011;7812;50.072;7.036;2022-09-03T03:48:41;2.70;;;1.40;;
15425;SDS011;7812;50.072;7.036;2022-09-03T03:51:07;1.40;;;1.30;;
15425;SDS011;7812;50.072;7.036;2022-09-03T03:53:34;1.70;;;1.30;;
15425;SDS011;7812;50.072;7.036;2022-09-03T03:56:02;2.70;;;1.30;;
15425;SDS011;7812;50.072;7.036;2022-09-03T03:58:31;1.40;;;1.30;;
15425;SDS011;7812;50.072;7.036;2022-09-03T04:01:08;1.53;;;1.37;;
15425;SDS011;7812;50.072;7.036;2022-09-03T04:03:36;1.23;;;1.13;;
15425;SDS011;7812;50.072;7.036;2022-09-03T04:06:02;1.30;;;1.20;;
15425;SDS011;7812;50.072;7.036;2022-09-03T04:08:35;1.30;;;1.20;;
15425;SDS011;7812;50.072;7.036;2022-09-03T04:11:02;1.93;;;1.40;;
15425;SDS011;7812;50.072;7.036;2022-09-03T04:13:33;1.70;;;1.40;;
15425;SDS011;7812;50.072;7.036;2022-09-03T04:16:04;1.43;;;1.33;;
15425;SDS011;7812;50.072;7.036;2022-09-03T04:18:31;1.60;;;1.50;;
15425;SDS011;7812;50.072;7.036;2022-09-03T04:21:01;3.27;;;1.47;;
15425;SDS011;7812;50.072;7.036;2022-09-03T04:23:28;1.43;;;1.33;;
15425;SDS011;7812;50.072;7.036;2022-09-03T04:25:58;1.47;;;1.30;;
15425;SDS011;7812;50.072;7.036;2022-09-03T04:28:24;1.53;;;1.40;;
15425;SDS011;7812;50.072;7.036;2022-09-03T04:30:50;1.40;;;1.30;;
15425;SDS011;7812;50.072;7.036;2022-09-03T04:33:16;2.00;;;1.50;;
15425;SDS011;7812;50.072;7.036;2022-09-03T04:35:41;2.03;;;1.37;;
15425;SDS011;7812;50.072;7.036;2022-09-03T04:38:08;1.73;;;1.10;;
15425;SDS011;7812;50.072;7.036;2022-09-03T04:40:35;4.00;;;1.40;;
15425;SDS011;7812;50.072;7.036;2022-09-03T04:43:01;1.40;;;1.27;;
15425;SDS011;7812;50.072;7.036;2022-09-03T04:45:27;1.30;;;1.20;;
15425;SDS011;7812;50.072;7.036;2022-09-03T04:47:57;1.40;;;1.30;;
15425;SDS011;7812;50.072;7.036;2022-09-03T04:50:24;2.27;;;1.20;;
15425;SDS011;7812;50.072;7.036;2022-09-03T04:52:52;1.67;;;1.57;;
15425;SDS011;7812;50.072;7.036;2022-09-03T04:55:20;2.33;;;1.40;;
15425;SDS011;7812;50.072;7.036;2022-09-03T04:57:46;1.60;;;1.30;;
15425;SDS011;7812;50.072;7.036;2022-09-03T05:00:12;1.97;;;1.40;;
15425;SDS011;7812;50.072;7.036;2022-09-03T05:02:42;1.43;;;1.33;;
15425;SDS011;7812;50.072;7.036;2022-09-03T05:05:10;1.20;;;1.10;;
15425;SDS011;7812;50.072;7.036;2022-09-03T05:07:36;1.47;;;1.37;;
15425;SDS011;7812;50.072;7.036;2022-09-03T05:10:04;2.60;;;1.10;;
15425;SDS011;7812;50.072;7.036;2022-09-03T05:12:31;1.70;;;1.33;;
15425;SDS011;7812;50.072;7.036;2022-09-03T05:14:57;1.20;;;1.10;;
15425;SDS011;7812;50.072;7.036;2022-09-03T05:17:24;2.33;;;1.37;;
15425;SDS011;7812;50.072;7.036;2022-09-03T05:19:50;2.33;;;1.40;;
15425;SDS011;7812;50.072;7.036;2022-09-03T05:22:16;2.00;;;1.30;;
15425;SDS011;7812;50.072;7.036;2022-09-03T05:24:45;2.37;;;1.23;;
15425;SDS011;7812;50.072;7.036;2022-09-03T05:27:14;2.03;;;1.20;;
15425;SDS011;7812;50.072;7.036;2022-09-03T05:29:42;3.50;;;1.23;;
15425;SDS011;7812;50.072;7.036;2022-09-03T05:32:09;1.53;;;1.40;;
15425;SDS011;7812;50.072;7.036;2022-09-03T05:34:38;2.20;;;1.20;;
15425;SDS011;7812;50.072;7.036;2022-09-03T05:37:03;3.03;;;1.67;;
15425;SDS011;7812;50.072;7.036;2022-09-03T05:39:29;1.70;;;1.20;;
15425;SDS011;7812;50.072;7.036;2022-09-03T05:41:55;1.20;;;1.10;;
15425;SDS011;7812;50.072;7.036;2022-09-03T05:44:20;1.60;;;1.27;;
15425;SDS011;7812;50.072;7.036;2022-09-03T05:46:47;1.73;;;1.27;;
15425;SDS011;7812;50.072;7.036;2022-09-03T05:49:15;1.93;;;1.40;;
15425;SDS011;7812;50.072;7.036;2022-09-03T05:51:42;1.40;;;1.30;;
15425;SDS011;7812;50.072;7.036;2022-09-03T05:54:08;2.43;;;1.33;;
15425;SDS011;7812;50.072;7.036;2022-09-03T05:56:35;3.20;;;1.30;;
15425;SDS011;7812;50.072;7.036;2022-09-03T05:59:05;2.93;;;1.40;;
15425;SDS011;7812;50.072;7.036;2022-09-03T06:01:43;1.60;;;1.50;;
15425;SDS011;7812;50.072;7.036;2022-09-03T06:04:12;1.20;;;1.10;;
15425;SDS011;7812;50.072;7.036;2022-09-03T06:06:39;1.93;;;1.50;;
15425;SDS011;7812;50.072;7.036;2022-09-03T06:09:07;1.67;;;1.40;;
15425;SDS011;7812;50.072;7.036;2022-09-03T06:11:35;1.53;;;1.40;;
15425;SDS011;7812;50.072;7.036;2022-09-03T06:14:04;1.30;;;1.20;;
15425;SDS011;7812;50.072;7.036;2022-09-03T06:16:32;1.50;;;1.40;;
15425;SDS011;7812;50.072;7.036;2022-09-03T06:19:00;1.40;;;1.30;;
15425;SDS011;7812;50.072;7.036;2022-09-03T06:21:27;2.13;;;1.20;;
15425;SDS011;7812;50.072;7.036;2022-09-03T06:23:54;1.97;;;1.33;;
15425;SDS011;7812;50.072;7.036;2022-09-03T06:26:21;1.87;;;1.10;;
15425;SDS011;7812;50.072;7.036;2022-09-03T06:28:49;1.73;;;1.43;;
15425;SDS011;7812;50.072;7.036;2022-09-03T06:31:16;1.73;;;1.50;;
15425;SDS011;7812;50.072;7.036;2022-09-03T06:33:43;1.50;;;1.40;;
15425;SDS011;7812;50.072;7.036;2022-09-03T06:36:10;2.40;;;1.30;;
15425;SDS011;7812;50.072;7.036;2022-09-03T06:38:37;2.27;;;1.50;;
15425;SDS011;7812;50.072;7.036;2022-09-03T06:41:05;2.83;;;1.30;;
15425;SDS011;7812;50.072;7.036;2022-09-03T06:43:36;2.97;;;1.23;;
15425;SDS011;7812;50.072;7.036;2022-09-03T06:46:06;1.60;;;1.33;;
15425;SDS011;7812;50.072;7.036;2022-09-03T06:48:35;2.40;;;1.43;;
15425;SDS011;7812;50.072;7.036;2022-09-03T06:51:05;2.10;;;1.40;;
15425;SDS011;7812;50.072;7.036;2022-09-03T06:53:33;1.47;;;1.37;;
15425;SDS011;7812;50.072;7.036;2022-09-03T06:56:02;1.20;;;1.07;;
15425;SDS011;7812;50.072;7.036;2022-09-03T06:58:33;1.30;;;1.20;;
15425;SDS011;7812;50.072;7.036;2022-09-03T07:01:11;1.77;;;1.30;;
15425;SDS011;7812;50.072;7.036;2022-09-03T07:03:39;1.50;;;1.33;;
15425;SDS011;7812;50.072;7.036;2022-09-03T07:06:07;1.23;;;1.10;;
15425;SDS011;7812;50.072;7.036;2022-09-03T07:08:37;2.87;;;1.40;;
15425;SDS011;7812;50.072;7.036;2022-09-03T07:11:03;2.40;;;1.00;;
15425;SDS011;7812;50.072;7.036;2022-09-03T07:13:34;1.87;;;1.20;;
15425;SDS011;7812;50.072;7.036;2022-09-03T07:16:02;1.87;;;1.30;;
15425;SDS011;7812;50.072;7.036;2022-09-03T07:18:32;1.97;;;1.20;;
15425;SDS011;7812;50.072;7.036;2022-09-03T07:20:58;1.77;;;1.37;;
15425;SDS011;7812;50.072;7.036;2022-09-03T07:23:25;2.17;;;1.27;;
15425;SDS011;7812;50.072;7.036;2022-09-03T07:25:52;1.13;;;1.03;;
15425;SDS011;7812;50.072;7.036;2022-09-03T07:28:19;1.80;;;1.17;;
15425;SDS011;7812;50.072;7.036;2022-09-03T07:30:49;3.77;;;1.20;;
15425;SDS011;7812;50.072;7.036;2022-09-03T07:33:15;1.60;;;1.30;;
15425;SDS011;7812;50.072;7.036;2022-09-03T07:35:42;1.60;;;1.00;;
15425;SDS011;7812;50.072;7.036;2022-09-03T07:38:08;4.00;;;1.17;;
15425;SDS011;7812;50.072;7.036;2022-09-03T07:40:34;1.77;;;1.07;;
15425;SDS011;7812;50.072;7.036;2022-09-03T07:43:00;3.00;;;1.20;;
15425;SDS011;7812;50.072;7.036;2022-09-03T07:45:28;2.70;;;1.20;;
15425;SDS011;7812;50.072;7.036;2022-09-03T07:47:55;2.90;;;1.10;;
15425;SDS011;7812;50.072;7.036;2022-09-03T07:50:21;2.60;;;1.00;;
15425;SDS011;7812;50.072;7.036;2022-09-03T07:52:46;2.37;;;1.20;;
15425;SDS011;7812;50.072;7.036;2022-09-03T07:55:12;1.27;;;1.10;;
15425;SDS011;7812;50.072;7.036;2022-09-03T07:57:38;2.40;;;1.00;;
15425;SDS011;7812;50.072;7.036;2022-09-03T08:00:04;1.87;;;1.20;;
15425;SDS011;7812;50.072;7.036;2022-09-03T08:02:32;1.73;;;1.10;;
15425;SDS011;7812;50.072;7.036;2022-09-03T08:04:58;1.80;;;1.30;;
15425;SDS011;7812;50.072;7.036;2022-09-03T08:07:25;2.37;;;1.40;;
15425;SDS011;7812;50.072;7.036;2022-09-03T08:09:52;2.17;;;1.20;;
15425;SDS011;7812;50.072;7.036;2022-09-03T08:12:18;2.70;;;1.20;;
15425;SDS011;7812;50.072;7.036;2022-09-03T08:14:43;2.90;;;1.20;;
15425;SDS011;7812;50.072;7.036;2022-09-03T08:17:09;2.17;;;1.20;;
15425;SDS011;7812;50.072;7.036;2022-09-03T08:19:37;2.60;;;1.23;;
15425;SDS011;7812;50.072;7.036;2022-09-03T08:22:05;2.77;;;1.50;;
15425;SDS011;7812;50.072;7.036;2022-09-03T08:24:30;1.97;;;1.30;;
15425;SDS011;7812;50.072;7.036;2022-09-03T08:26:57;3.37;;;1.30;;
15425;SDS011;7812;50.072;7.036;2022-09-03T08:29:23;2.10;;;1.60;;
15425;SDS011;7812;50.072;7.036;2022-09-03T08:31:50;1.57;;;1.10;;
15425;SDS011;7812;50.072;7.036;2022-09-03T08:34:16;1.33;;;1.20;;
15425;SDS011;7812;50.072;7.036;2022-09-03T08:36:44;1.27;;;1.07;;
15425;SDS011;7812;50.072;7.036;2022-09-03T08:39:11;2.67;;;1.30;;
15425;SDS011;7812;50.072;7.036;2022-09-03T08:46:50;1.73;;;1.20;;
15425;SDS011;7812;50.072;7.036;2022-09-03T08:52:29;2.47;;;1.47;;
15425;SDS011;7812;50.072;7.036;2022-09-03T08:58:00;1.47;;;1.10;;
15425;SDS011;7812;50.072;7.036;2022-09-03T09:03:07;1.73;;;1.27;;
15425;SDS011;7812;50.072;7.036;2022-09-03T09:05:51;1.50;;;1.23;;
15425;SDS011;7812;50.072;7.036;2022-09-03T09:08:33;3.23;;;1.20;;
15425;SDS011;7812;50.072;7.036;2022-09-03T09:14:10;2.10;;;1.53;;
15425;SDS011;7812;50.072;7.036;2022-09-03T09:16:46;1.63;;;1.27;;
15425;SDS011;7812;50.072;7.036;2022-09-03T09:19:38;2.00;;;1.30;;
15425;SDS011;7812;50.072;7.036;2022-09-03T09:22:29;1.50;;;1.40;;
15425;SDS011;7812;50.072;7.036;2022-09-03T09:25:05;1.47;;;1.17;;
15425;SDS011;7812;50.072;7.036;2022-09-03T09:27:38;1.93;;;1.47;;
15425;SDS011;7812;50.072;7.036;2022-09-03T09:30:18;2.60;;;1.47;;
15425;SDS011;7812;50.072;7.036;2022-09-03T09:32:44;2.40;;;1.50;;
15425;SDS011;7812;50.072;7.036;2022-09-03T09:35:11;1.60;;;1.43;;
15425;SDS011;7812;50.072;7.036;2022-09-03T09:37:52;1.53;;;1.20;;
15425;SDS011;7812;50.072;7.036;2022-09-03T09:40:23;2.23;;;1.50;;
15425;SDS011;7812;50.072;7.036;2022-09-03T09:43:04;1.77;;;1.50;;
15425;SDS011;7812;50.072;7.036;2022-09-03T09:45:34;2.40;;;1.30;;
15425;SDS011;7812;50.072;7.036;2022-09-03T09:51:17;1.30;;;1.20;;
15425;SDS011;7812;50.072;7.036;2022-09-03T09:53:45;4.07;;;1.47;;
15425;SDS011;7812;50.072;7.036;2022-09-03T09:56:24;1.60;;;1.40;;
15425;SDS011;7812;50.072;7.036;2022-09-03T09:59:01;2.20;;;1.47;;
15425;SDS011;7812;50.072;7.036;2022-09-03T10:01:37;1.40;;;1.30;;
15425;SDS011;7812;50.072;7.036;2022-09-03T10:06:55;1.53;;;1.43;;
15425;SDS011;7812;50.072;7.036;2022-09-03T10:09:43;2.00;;;1.70;;
15425;SDS011;7812;50.072;7.036;2022-09-03T10:12:21;1.60;;;1.50;;
15425;SDS011;7812;50.072;7.036;2022-09-03T10:15:04;1.67;;;1.40;;
15425;SDS011;7812;50.072;7.036;2022-09-03T10:17:44;3.40;;;1.80;;
15425;SDS011;7812;50.072;7.036;2022-09-03T10:20:14;3.63;;;2.03;;
15425;SDS011;7812;50.072;7.036;2022-09-03T10:25:42;1.97;;;1.63;;
15425;SDS011;7812;50.072;7.036;2022-09-03T10:28:14;2.43;;;1.50;;
15425;SDS011;7812;50.072;7.036;2022-09-03T10:31:02;1.70;;;1.37;;
15425;SDS011;7812;50.072;7.036;2022-09-03T10:33:39;2.63;;;1.33;;
15425;SDS011;7812;50.072;7.036;2022-09-03T10:44:53;1.60;;;1.50;;
15425;SDS011;7812;50.072;7.036;2022-09-03T10:55:39;2.00;;;1.70;;
15425;SDS011;7812;50.072;7.036;2022-09-03T11:00:38;2.50;;;1.57;;
15425;SDS011;7812;50.072;7.036;2022-09-03T11:06:00;1.47;;;1.33;;
15425;SDS011;7812;50.072;7.036;2022-09-03T11:11:23;1.50;;;1.40;;
15425;SDS011;7812;50.072;7.036;2022-09-03T11:14:01;1.40;;;1.30;;
15425;SDS011;7812;50.072;7.036;2022-09-03T11:16:54;1.80;;;1.70;;
15425;SDS011;7812;50.072;7.036;2022-09-03T11:19:26;1.30;;;1.20;;
15425;SDS011;7812;50.072;7.036;2022-09-03T11:22:18;2.03;;;1.60;;
15425;SDS011;7812;50.072;7.036;2022-09-03T11:24:49;1.90;;;1.60;;
15425;SDS011;7812;50.072;7.036;2022-09-03T11:30:12;2.00;;;1.57;;
15425;SDS011;7812;50.072;7.036;2022-09-03T11:33:29;1.87;;;1.50;;
15425;SDS011;7812;50.072;7.036;2022-09-03T11:35:39;1.97;;;1.47;;
15425;SDS011;7812;50.072;7.036;2022-09-03T11:40:56;1.50;;;1.40;;
15425;SDS011;7812;50.072;7.036;2022-09-03T11:43:27;2.90;;;1.40;;
15425;SDS011;7812;50.072;7.036;2022-09-03T11:48:51;1.70;;;1.43;;
15425;SDS011;7812;50.072;7.036;2022-09-03T11:51:34;2.67;;;1.40;;
15425;SDS011;7812;50.072;7.036;2022-09-03T11:56:44;2.13;;;1.50;;
15425;SDS011;7812;50.072;7.036;2022-09-03T12:01:43;1.50;;;1.40;;
15425;SDS011;7812;50.072;7.036;2022-09-03T12:04:28;2.20;;;1.60;;
15425;SDS011;7812;50.072;7.036;2022-09-03T12:18:38;1.73;;;1.50;;
15425;SDS011;7812;50.072;7.036;2022-09-03T12:21:06;1.60;;;1.50;;
15425;SDS011;7812;50.072;7.036;2022-09-03T12:26:10;3.17;;;1.50;;
15425;SDS011;7812;50.072;7.036;2022-09-03T12:28:43;1.50;;;1.40;;
15425;SDS011;7812;50.072;7.036;2022-09-03T12:36:23;2.53;;;1.47;;
15425;SDS011;7812;50.072;7.036;2022-09-03T12:38:50;1.57;;;1.47;;
15425;SDS011;7812;50.072;7.036;2022-09-03T12:41:27;1.40;;;1.30;;
15425;SDS011;7812;50.072;7.036;2022-09-03T12:43:57;1.97;;;1.73;;
15425;SDS011;7812;50.072;7.036;2022-09-03T12:46:25;4.57;;;1.77;;
15425;SDS011;7812;50.072;7.036;2022-09-03T12:51:18;1.60;;;1.50;;
15425;SDS011;7812;50.072;7.036;2022-09-03T12:53:46;1.90;;;1.70;;
15425;SDS011;7812;50.072;7.036;2022-09-03T12:56:13;2.17;;;1.53;;
15425;SDS011;7812;50.072;7.036;2022-09-03T13:01:12;1.50;;;1.40;;
15425;SDS011;7812;50.072;7.036;2022-09-03T13:03:50;1.80;;;1.53;;
15425;SDS011;7812;50.072;7.036;2022-09-03T13:06:21;1.97;;;1.80;;
15425;SDS011;7812;50.072;7.036;2022-09-03T13:08:57;2.23;;;1.83;;
15425;SDS011;7812;50.072;7.036;2022-09-03T13:11:31;2.03;;;1.90;;
15425;SDS011;7812;50.072;7.036;2022-09-03T13:27:18;2.00;;;1.90;;
15425;SDS011;7812;50.072;7.036;2022-09-03T13:32:55;2.13;;;1.73;;
15425;SDS011;7812;50.072;7.036;2022-09-03T13:40:36;1.83;;;1.73;;
15425;SDS011;7812;50.072;7.036;2022-09-03T13:45:57;3.73;;;2.40;;
15425;SDS011;7812;50.072;7.036;2022-09-03T13:48:40;2.83;;;2.50;;
15425;SDS011;7812;50.072;7.036;2022-09-03T13:51:40;3.30;;;2.40;;
15425;SDS011;7812;50.072;7.036;2022-09-03T14:05:14;2.87;;;2.63;;
15425;SDS011;7812;50.072;7.036;2022-09-03T14:21:56;2.70;;;2.50;;
15425;SDS011;7812;50.072;7.036;2022-09-03T14:27:24;2.90;;;2.50;;
15425;SDS011;7812;50.072;7.036;2022-09-03T14:29:53;2.67;;;2.40;;
15425;SDS011;7812;50.072;7.036;2022-09-03T14:32:30;3.40;;;2.67;;
15425;SDS011;7812;50.072;7.036;2022-09-03T14:40:29;2.90;;;2.70;;
15425;SDS011;7812;50.072;7.036;2022-09-03T14:51:10;2.90;;;2.60;;
15425;SDS011;7812;50.072;7.036;2022-09-03T15:07:54;2.80;;;2.60;;
15425;SDS011;7812;50.072;7.036;2022-09-03T15:13:19;2.87;;;2.67;;
15425;SDS011;7812;50.072;7.036;2022-09-03T15:32:15;2.80;;;2.60;;
15425;SDS011;7812;50.072;7.036;2022-09-03T15:37:35;2.50;;;2.30;;
15425;SDS011;7812;50.072;7.036;2022-09-03T15:40:26;2.47;;;2.27;;
15425;SDS011;7812;50.072;7.036;2022-09-03T15:43:37;2.47;;;2.27;;
15425;SDS011;7812;50.072;7.036;2022-09-03T15:48:22;2.30;;;2.10;;
15425;SDS011;7812;50.072;7.036;2022-09-03T15:53:57;2.53;;;2.33;;
15425;SDS011;7812;50.072;7.036;2022-09-03T15:56:34;3.13;;;2.13;;
15425;SDS011;7812;50.072;7.036;2022-09-03T16:03:11;2.60;;;2.40;;
15425;SDS011;7812;50.072;7.036;2022-09-03T16:10:58;2.30;;;2.20;;
15425;SDS011;7812;50.072;7.036;2022-09-03T16:19:20;2.50;;;2.30;;
15425;SDS011;7812;50.072;7.036;2022-09-03T16:47:20;2.80;;;2.60;;
15425;SDS011;7812;50.072;7.036;2022-09-03T16:50:03;2.63;;;2.43;;
15425;SDS011;7812;50.072;7.036;2022-09-03T16:52:47;2.13;;;1.80;;
15425;SDS011;7812;50.072;7.036;2022-09-03T17:07:02;2.67;;;2.47;;
15425;SDS011;7812;50.072;7.036;2022-09-03T17:26:00;2.30;;;2.10;;
15425;SDS011;7812;50.072;7.036;2022-09-03T17:34:15;2.10;;;1.90;;
15425;SDS011;7812;50.072;7.036;2022-09-03T17:42:03;2.20;;;2.00;;
15425;SDS011;7812;50.072;7.036;2022-09-03T17:44:43;2.37;;;2.17;;
15425;SDS011;7812;50.072;7.036;2022-09-03T17:50:23;2.90;;;2.07;;
15425;SDS011;7812;50.072;7.036;2022-09-03T17:55:37;2.30;;;2.10;;
15425;SDS011;7812;50.072;7.036;2022-09-03T18:01:16;2.13;;;1.93;;
15425;SDS011;7812;50.072;7.036;2022-09-03T18:11:47;2.57;;;2.37;;
15425;SDS011;7812;50.072;7.036;2022-09-03T18:20:08;4.93;;;4.43;;
15425;SDS011;7812;50.072;7.036;2022-09-03T18:26:02;2.87;;;2.60;;
15425;SDS011;7812;50.072;7.036;2022-09-03T18:28:54;2.60;;;2.40;;
15425;SDS011;7812;50.072;7.036;2022-09-03T18:31:49;3.00;;;2.70;;
15425;SDS011;7812;50.072;7.036;2022-09-03T18:34:34;2.50;;;2.30;;
15425;SDS011;7812;50.072;7.036;2022-09-03T18:37:21;2.93;;;2.63;;
15425;SDS011;7812;50.072;7.036;2022-09-03T18:40:09;2.80;;;2.60;;
15425;SDS011;7812;50.072;7.036;2022-09-03T18:45:53;3.50;;;3.10;;
15425;SDS011;7812;50.072;7.036;2022-09-03T18:48:56;3.90;;;3.10;;
15425;SDS011;7812;50.072;7.036;2022-09-03T18:58:12;3.27;;;2.90;;
15425;SDS011;7812;50.072;7.036;2022-09-03T19:01:11;2.70;;;2.50;;
15425;SDS011;7812;50.072;7.036;2022-09-03T19:10:27;3.00;;;2.80;;
15425;SDS011;7812;50.072;7.036;2022-09-03T19:13:30;2.80;;;2.60;;
15425;SDS011;7812;50.072;7.036;2022-09-03T19:22:40;3.20;;;2.90;;
15425;SDS011;7812;50.072;7.036;2022-09-03T19:25:12;3.23;;;2.93;;
15425;SDS011;7812;50.072;7.036;2022-09-03T19:28:17;3.40;;;2.87;;
15425;SDS011;7812;50.072;7.036;2022-09-03T19:37:07;2.90;;;2.60;;
15425;SDS011;7812;50.072;7.036;2022-09-03T19:54:52;2.53;;;2.33;;
15425;SDS011;7812;50.072;7.036;2022-09-03T19:57:40;2.87;;;2.67;;
15425;SDS011;7812;50.072;7.036;2022-09-03T20:00:26;2.90;;;2.70;;
15425;SDS011;7812;50.072;7.036;2022-09-03T20:03:12;2.47;;;2.27;;
15425;SDS011;7812;50.072;7.036;2022-09-03T20:05:57;3.03;;;2.80;;
15425;SDS011;7812;50.072;7.036;2022-09-03T20:08:44;2.60;;;2.37;;
15425;SDS011;7812;50.072;7.036;2022-09-03T20:11:31;2.90;;;2.70;;
15425;SDS011;7812;50.072;7.036;2022-09-03T20:13:57;2.80;;;2.60;;
15425;SDS011;7812;50.072;7.036;2022-09-03T20:27:37;3.00;;;2.70;;
15425;SDS011;7812;50.072;7.036;2022-09-03T20:52:12;2.80;;;2.47;;
15425;SDS011;7812;50.072;7.036;2022-09-03T20:54:46;3.00;;;2.80;;
15425;SDS011;7812;50.072;7.036;2022-09-03T20:57:23;2.90;;;2.70;;
15425;SDS011;7812;50.072;7.036;2022-09-03T21:00:14;2.80;;;2.60;;
15425;SDS011;7812;50.072;7.036;2022-09-03T21:19:21;2.87;;;2.57;;
15425;SDS011;7812;50.072;7.036;2022-09-03T21:22:05;2.77;;;2.57;;
15425;SDS011;7812;50.072;7.036;2022-09-03T21:24:54;2.97;;;2.60;;
15425;SDS011;7812;50.072;7.036;2022-09-03T21:27:31;2.30;;;2.20;;
15425;SDS011;7812;50.072;7.036;2022-09-03T21:30:06;3.03;;;2.80;;
15425;SDS011;7812;50.072;7.036;2022-09-03T21:37:28;2.73;;;2.53;;
15425;SDS011;7812;50.072;7.036;2022-09-03T21:40:00;2.43;;;2.23;;
15425;SDS011;7812;50.072;7.036;2022-09-03T21:47:31;2.70;;;2.50;;
15425;SDS011;7812;50.072;7.036;2022-09-03T22:00:38;2.70;;;2.50;;
15425;SDS011;7812;50.072;7.036;2022-09-03T22:03:07;2.87;;;2.60;;
15425;SDS011;7812;50.072;7.036;2022-09-03T22:06:10;5.43;;;3.00;;
15425;SDS011;7812;50.072;7.036;2022-09-03T22:11:27;2.90;;;2.70;;
15425;SDS011;7812;50.072;7.036;2022-09-03T22:14:07;3.00;;;2.60;;
15425;SDS011;7812;50.072;7.036;2022-09-03T22:16:46;2.90;;;2.60;;
15425;SDS011;7812;50.072;7.036;2022-09-03T22:19:22;2.97;;;2.67;;
15425;SDS011;7812;50.072;7.036;2022-09-03T22:21:52;2.63;;;2.43;;
15425;SDS011;7812;50.072;7.036;2022-09-03T22:43:37;2.90;;;2.70;;
15425;SDS011;7812;50.072;7.036;2022-09-03T22:46:16;2.80;;;2.60;;
15425;SDS011;7812;50.072;7.036;2022-09-03T22:51:43;3.20;;;2.70;;
15425;SDS011;7812;50.072;7.036;2022-09-03T22:54:32;3.03;;;2.83;;
15425;SDS011;7812;50.072;7.036;2022-09-03T22:57:05;2.73;;;2.53;;
15425;SDS011;7812;50.072;7.036;2022-09-03T23:00:08;4.00;;;3.07;;
15425;SDS011;7812;50.072;7.036;2022-09-03T23:02:30;3.00;;;2.73;;
15425;SDS011;7812;50.072;7.036;2022-09-03T23:13:30;2.67;;;2.47;;
15425;SDS011;7812;50.072;7.036;2022-09-03T23:16:20;3.13;;;2.83;;
15425;SDS011;7812;50.072;7.036;2022-09-03T23:18:55;2.70;;;2.50;;
15425;SDS011;7812;50.072;7.036;2022-09-03T23:21:45;2.50;;;2.30;;
15425;SDS011;7812;50.072;7.036;2022-09-03T23:24:29;3.33;;;3.03;;
15425;SDS011;7812;50.072;7.036;2022-09-03T23:27:07;2.77;;;2.57;;
15425;SDS011;7812;50.072;7.036;2022-09-03T23:29:40;2.70;;;2.50;;
15425;SDS011;7812;50.072;7.036;2022-09-03T23:32:14;3.50;;;2.63;;
15425;SDS011;7812;50.072;7.036;2022-09-03T23:34:40;2.60;;;2.40;;
15425;SDS011;7812;50.072;7.036;2022-09-03T23:46:04;2.60;;;2.40;;
15425;SDS011;7812;50.072;7.036;2022-09-03T23:54:08;3.30;;;3.00;;
15425;SDS011;7812;50.072;7.036;2022-09-03T23:57:00;3.47;;;3.17;;
